Time;durP1;ratioP1;P1;durP2;ratioP2;P2;SDS_P1;SDS_P2;PMS_P1;PMS_P2;Temp;Humidity;BMP_temperature;BMP_pressure;BME280_temperature;BME280_humidity;BME280_pressure;Samples;Min_cycle;Max_cycle;Signal;HPM_P1;HPM_P2
2021/09/11 00:00:57;;;;;;;8.95;6.28;;;;;;;10.01;81.40;96499.75;6307659;22;20003;-93
2021/09/11 00:03:23;;;;;;;8.90;6.65;;;;;;;10.06;81.59;96499.91;6307704;22;19995;-90
2021/09/11 00:05:49;;;;;;;8.68;6.38;;;;;;;10.07;81.28;96500.69;6307726;22;20339;-91
2021/09/11 00:08:14;;;;;;;8.77;6.47;;;;;;;9.99;81.82;96492.06;6307501;22;20440;-92
2021/09/11 00:10:40;;;;;;;10.00;6.95;;;;;;;9.92;81.85;96487.69;6307595;22;20011;-93
2021/09/11 00:13:06;;;;;;;10.60;6.85;;;;;;;10.07;80.94;96508.81;6307509;22;20450;-93
2021/09/11 00:15:32;;;;;;;9.93;6.65;;;;;;;10.09;81.28;96525.41;6307547;22;20018;-92
2021/09/11 00:18:02;;;;;;;8.00;6.55;;;;;;;10.07;80.93;96515.00;6307354;22;20431;-92
2021/09/11 00:20:28;;;;;;;12.02;6.70;;;;;;;9.91;80.88;96501.72;6308985;22;20022;-92
2021/09/11 00:22:55;;;;;;;9.25;6.88;;;;;;;10.03;81.30;96525.25;6307404;22;20013;-92
2021/09/11 00:25:21;;;;;;;10.43;7.18;;;;;;;9.99;81.44;96519.19;6307433;22;20080;-91
2021/09/11 00:27:46;;;;;;;7.70;6.60;;;;;;;9.90;81.41;96492.78;6307332;22;20003;-93
2021/09/11 00:30:16;;;;;;;9.77;6.28;;;;;;;9.94;81.21;96504.25;6307503;22;20011;-93
2021/09/11 00:32:45;;;;;;;9.57;6.90;;;;;;;9.93;81.44;96510.13;6307415;22;20112;-91
2021/09/11 00:35:14;;;;;;;10.02;6.50;;;;;;;9.86;81.14;96505.00;6307392;22;20010;-92
2021/09/11 00:37:41;;;;;;;12.65;7.32;;;;;;;9.91;81.69;96513.31;6307322;22;19995;-92
2021/09/11 00:40:08;;;;;;;10.35;6.70;;;;;;;9.83;82.05;96514.03;6307438;22;20003;-91
2021/09/11 00:42:34;;;;;;;46.67;9.77;;;;;;;9.80;81.59;96495.94;6307333;22;20042;-93
2021/09/11 00:45:00;;;;;;;12.15;7.00;;;;;;;9.89;81.18;96513.00;6307533;22;20007;-94
2021/09/11 00:47:25;;;;;;;20.75;7.15;;;;;;;9.79;81.21;96492.47;6307311;22;20003;-94
2021/09/11 00:49:51;;;;;;;30.13;7.68;;;;;;;9.83;80.47;96511.31;6307264;22;19999;-92
2021/09/11 00:52:17;;;;;;;9.50;6.30;;;;;;;9.44;80.62;96472.94;6307448;22;20030;-92
2021/09/11 00:54:43;;;;;;;9.02;6.32;;;;;;;9.61;80.78;96487.00;6307499;22;20085;-93
2021/09/11 00:57:10;;;;;;;8.75;6.72;;;;;;;9.77;80.97;96513.13;6307535;22;20479;-92
2021/09/11 00:59:36;;;;;;;9.40;6.32;;;;;;;9.39;80.78;96460.72;6307478;22;20335;-93
2021/09/11 01:02:01;;;;;;;9.27;6.57;;;;;;;9.39;80.35;96474.28;6307354;22;20003;-92
2021/09/11 01:04:28;;;;;;;9.60;6.82;;;;;;;9.49;81.16;96498.72;6307346;22;20009;-92
2021/09/11 01:06:55;;;;;;;8.60;6.47;;;;;;;9.41;81.47;96474.59;6307239;22;20017;-91
2021/09/11 01:09:20;;;;;;;7.43;6.32;;;;;;;9.60;80.59;96507.19;6307395;22;20048;-92
2021/09/11 01:11:46;;;;;;;7.80;6.60;;;;;;;9.61;80.71;96514.13;6308576;22;20010;-92
2021/09/11 01:14:12;;;;;;;8.85;6.38;;;;;;;9.49;81.23;96499.47;6309311;22;20095;-94
2021/09/11 01:16:38;;;;;;;10.68;6.85;;;;;;;9.42;80.53;96497.03;6309320;22;20336;-92
2021/09/11 01:19:03;;;;;;;10.38;6.72;;;;;;;9.43;80.60;96485.75;6309266;22;20447;-93
2021/09/11 01:21:29;;;;;;;8.77;6.45;;;;;;;9.35;80.91;96484.50;6309209;22;20034;-94
2021/09/11 01:23:54;;;;;;;9.20;6.30;;;;;;;9.43;80.46;96498.56;6308905;22;20005;-91
2021/09/11 01:26:20;;;;;;;8.75;6.70;;;;;;;9.52;80.33;96516.78;6309487;22;20014;-91
2021/09/11 01:28:46;;;;;;;10.27;6.15;;;;;;;9.39;80.73;96500.66;6309110;22;20086;-93
2021/09/11 01:31:11;;;;;;;7.40;6.60;;;;;;;9.38;80.77;96505.31;6309073;22;20068;-92
2021/09/11 01:33:37;;;;;;;10.70;6.68;;;;;;;9.27;80.31;96493.34;6308758;22;20087;-92
2021/09/11 01:36:03;;;;;;;10.85;6.82;;;;;;;9.39;81.29;96495.22;6309070;22;20100;-92
2021/09/11 01:38:29;;;;;;;8.40;6.53;;;;;;;9.27;80.58;96490.63;6309293;22;19999;-93
2021/09/11 01:40:54;;;;;;;10.02;6.70;;;;;;;9.30;81.01;96500.59;6308792;22;20003;-92
2021/09/11 01:43:32;;;;;;;7.32;6.10;;;;;;;9.21;80.86;96506.72;6308724;22;20007;-92
2021/09/11 01:45:59;;;;;;;9.45;6.60;;;;;;;9.23;80.83;96511.72;6308994;22;20406;-93
2021/09/11 01:48:24;;;;;;;9.85;6.65;;;;;;;9.12;80.96;96493.16;6308798;22;20007;-93
2021/09/11 01:50:50;;;;;;;9.50;6.72;;;;;;;9.30;81.81;96535.84;6309006;22;20031;-92
2021/09/11 01:53:16;;;;;;;9.27;6.30;;;;;;;9.25;80.96;96518.19;6334868;22;20003;-92
2021/09/11 01:55:42;;;;;;;8.73;6.82;;;;;;;9.18;81.16;96519.22;6335083;22;20002;-91
2021/09/11 01:58:07;;;;;;;10.02;7.00;;;;;;;9.01;81.17;96498.22;6308934;22;20013;-92
2021/09/11 02:00:33;;;;;;;10.18;7.30;;;;;;;9.05;81.27;96510.41;6308815;22;20003;-93
2021/09/11 02:02:59;;;;;;;9.70;7.75;;;;;;;9.11;82.06;96524.16;6308806;22;20007;-94
2021/09/11 02:05:24;;;;;;;10.20;7.53;;;;;;;9.02;81.78;96505.13;6309005;22;20007;-92
2021/09/11 02:07:50;;;;;;;11.98;7.63;;;;;;;9.05;80.95;96512.34;6308770;22;19999;-92
2021/09/11 02:10:18;;;;;;;9.70;7.90;;;;;;;8.99;81.61;96514.13;6308736;22;20065;-92
2021/09/11 02:12:44;;;;;;;13.10;7.85;;;;;;;9.14;81.56;96531.38;6308639;22;20034;-91
2021/09/11 02:15:10;;;;;;;11.00;7.82;;;;;;;9.12;81.82;96536.50;6308859;22;20003;-93
2021/09/11 02:17:39;;;;;;;12.52;7.68;;;;;;;8.74;81.37;96480.59;6308732;22;19995;-92
2021/09/11 02:20:06;;;;;;;11.48;7.85;;;;;;;8.82;81.65;96497.34;6308388;22;20007;-91
2021/09/11 02:22:31;;;;;;;11.23;7.63;;;;;;;8.92;81.96;96512.44;6308725;22;20007;-92
2021/09/11 02:24:57;;;;;;;10.82;7.82;;;;;;;8.83;81.08;96504.25;6308614;22;20014;-91
2021/09/11 02:27:23;;;;;;;10.50;7.22;;;;;;;8.82;81.61;96492.66;6308454;22;20007;-92
2021/09/11 02:29:49;;;;;;;10.95;7.55;;;;;;;8.74;81.14;96496.09;6308496;22;20091;-92
2021/09/11 02:32:15;;;;;;;10.20;7.70;;;;;;;8.88;81.56;96512.56;6308215;22;20053;-92
2021/09/11 02:34:40;;;;;;;10.63;7.95;;;;;;;8.92;81.99;96528.69;6308626;22;20003;-93
2021/09/11 02:37:06;;;;;;;10.27;7.32;;;;;;;8.61;81.04;96488.78;6308684;22;20082;-92
2021/09/11 02:39:32;;;;;;;10.10;7.32;;;;;;;8.85;81.25;96518.88;6308316;22;20435;-91
2021/09/11 02:41:58;;;;;;;11.35;7.43;;;;;;;8.80;81.18;96516.75;6308412;22;20086;-92
2021/09/11 02:44:23;;;;;;;11.07;7.47;;;;;;;8.71;81.79;96524.78;6308506;22;20003;-92
2021/09/11 02:46:49;;;;;;;11.63;8.00;;;;;;;8.63;81.81;96507.31;6308522;22;20328;-91
2021/09/11 02:49:15;;;;;;;11.50;7.50;;;;;;;8.59;81.42;96493.88;6308392;22;20015;-91
2021/09/11 02:51:40;;;;;;;11.65;7.20;;;;;;;8.77;81.71;96514.91;6308160;22;20056;-93
2021/09/11 02:54:06;;;;;;;12.23;7.95;;;;;;;8.52;81.35;96488.72;6308204;22;20003;-92
2021/09/11 02:56:32;;;;;;;10.45;7.57;;;;;;;8.64;81.61;96511.53;6308788;22;20011;-91
2021/09/11 02:58:57;;;;;;;10.82;7.55;;;;;;;8.57;81.93;96498.97;6308480;22;20003;-93
2021/09/11 03:01:24;;;;;;;9.43;7.28;;;;;;;8.55;81.64;96493.25;6308060;22;20041;-92
2021/09/11 03:03:51;;;;;;;10.32;7.35;;;;;;;8.84;82.55;96541.75;6308239;22;20061;-92
2021/09/11 03:06:16;;;;;;;12.18;7.38;;;;;;;8.51;82.44;96495.31;6308168;22;20003;-92
2021/09/11 03:08:42;;;;;;;9.23;7.25;;;;;;;8.63;81.90;96521.59;6308049;22;20012;-91
2021/09/11 03:11:08;;;;;;;11.18;7.45;;;;;;;8.87;82.07;96548.22;6308188;22;20003;-92
2021/09/11 03:13:34;;;;;;;12.30;7.25;;;;;;;8.65;81.63;96515.72;6308109;22;20064;-92
2021/09/11 03:16:00;;;;;;;10.07;7.72;;;;;;;8.62;81.27;96513.91;6308114;22;20003;-92
2021/09/11 03:18:25;;;;;;;12.35;7.40;;;;;;;8.44;80.93;96489.41;6308050;22;20014;-92
2021/09/11 03:20:51;;;;;;;12.60;7.85;;;;;;;8.70;81.08;96552.31;6308089;22;20007;-91
2021/09/11 03:23:17;;;;;;;13.73;7.45;;;;;;;8.68;81.95;96552.00;6307988;22;20007;-92
2021/09/11 03:25:43;;;;;;;12.75;7.63;;;;;;;8.57;81.53;96528.00;6308165;22;20428;-92
2021/09/11 03:28:09;;;;;;;10.98;7.13;;;;;;;8.53;81.19;96530.84;6308026;22;20095;-91
2021/09/11 03:30:35;;;;;;;11.00;7.78;;;;;;;8.51;81.14;96516.22;6308034;22;20003;-94
2021/09/11 03:33:01;;;;;;;13.02;7.53;;;;;;;8.26;81.29;96481.88;6307556;22;20035;-92
2021/09/11 03:35:28;;;;;;;9.75;7.60;;;;;;;8.31;81.37;96495.59;6307967;22;20003;-93
2021/09/11 03:37:54;;;;;;;10.18;7.90;;;;;;;8.70;81.67;96547.66;6307819;22;20053;-92
2021/09/11 03:40:22;;;;;;;9.98;7.68;;;;;;;8.38;81.11;96495.38;6307888;22;20428;-92
2021/09/11 03:42:47;;;;;;;12.10;8.02;;;;;;;8.48;80.92;96504.34;6307927;22;20003;-93
2021/09/11 03:45:13;;;;;;;12.30;7.75;;;;;;;8.50;81.25;96507.34;6307980;22;20010;-92
2021/09/11 03:47:39;;;;;;;11.07;7.53;;;;;;;8.61;81.30;96536.75;6307805;22;20391;-92
2021/09/11 03:50:06;;;;;;;9.77;7.50;;;;;;;8.50;81.57;96520.13;6307741;22;20007;-91
2021/09/11 03:52:32;;;;;;;9.85;7.50;;;;;;;8.22;80.97;96494.78;6307799;22;20007;-93
2021/09/11 03:54:57;;;;;;;8.48;7.10;;;;;;;8.28;81.28;96501.13;6307801;22;20003;-91
2021/09/11 03:57:23;;;;;;;9.77;7.00;;;;;;;8.34;81.17;96508.25;6307759;22;20136;-93
2021/09/11 03:59:49;;;;;;;8.73;7.43;;;;;;;8.24;81.60;96495.84;6307534;22;20007;-91
2021/09/11 04:02:14;;;;;;;10.65;7.25;;;;;;;8.41;82.50;96509.97;6307690;22;20344;-93
2021/09/11 04:04:40;;;;;;;10.50;7.40;;;;;;;8.36;82.89;96505.91;6307904;22;20056;-91
2021/09/11 04:07:06;;;;;;;10.48;7.35;;;;;;;8.51;82.40;96516.22;6307457;22;20010;-93
2021/09/11 04:09:31;;;;;;;9.85;7.93;;;;;;;8.49;82.89;96513.22;6333835;22;20084;-92
2021/09/11 04:11:57;;;;;;;10.95;7.55;;;;;;;8.52;82.90;96515.81;6307738;22;20432;-92
2021/09/11 04:14:23;;;;;;;14.35;7.15;;;;;;;8.48;82.63;96503.59;6307738;22;20007;-91
2021/09/11 04:16:49;;;;;;;12.40;7.47;;;;;;;8.43;82.75;96504.91;6307614;22;20003;-92
2021/09/11 04:19:14;;;;;;;11.18;7.32;;;;;;;8.46;82.82;96511.38;6307728;22;20357;-92
2021/09/11 04:21:40;;;;;;;10.45;7.60;;;;;;;8.40;82.48;96498.41;6307570;22;20066;-92
2021/09/11 04:24:06;;;;;;;14.40;8.05;;;;;;;8.44;82.96;96509.09;6307503;22;20149;-92
2021/09/11 04:26:37;;;;;;;13.38;8.32;;;;;;;8.51;82.43;96513.50;6307447;22;20082;-91
2021/09/11 04:29:04;;;;;;;14.57;7.70;;;;;;;8.62;82.81;96528.19;6307447;22;20007;-92
2021/09/11 04:31:30;;;;;;;21.77;8.52;;;;;;;8.70;81.84;96552.31;6303972;22;20003;-93
2021/09/11 04:33:55;;;;;;;11.35;7.88;;;;;;;8.29;81.75;96500.69;6251129;22;20011;-92
2021/09/11 04:36:21;;;;;;;12.18;8.32;;;;;;;8.42;81.32;96524.28;6250686;22;20008;-93
2021/09/11 04:38:46;;;;;;;10.15;7.95;;;;;;;8.23;81.90;96491.63;6250934;22;20367;-92
2021/09/11 04:41:12;;;;;;;10.23;7.90;;;;;;;8.42;81.84;96516.91;6250837;22;20011;-93
2021/09/11 04:43:38;;;;;;;10.48;8.00;;;;;;;8.55;81.47;96538.50;6251077;22;20314;-91
2021/09/11 04:46:03;;;;;;;12.15;7.90;;;;;;;8.40;81.84;96511.19;6251740;22;20008;-92
2021/09/11 04:48:30;;;;;;;10.63;7.63;;;;;;;8.42;81.62;96524.28;6252918;22;20004;-92
2021/09/11 04:50:56;;;;;;;13.07;7.85;;;;;;;8.45;80.86;96517.97;6253061;22;20007;-93
2021/09/11 04:53:21;;;;;;;9.32;7.22;;;;;;;8.34;81.71;96505.53;6252992;22;19999;-93
2021/09/11 04:55:47;;;;;;;10.65;7.70;;;;;;;8.60;81.06;96540.66;6252870;22;20099;-91
2021/09/11 04:58:13;;;;;;;12.90;7.93;;;;;;;8.27;80.86;96491.50;6253066;22;20006;-90
2021/09/11 05:00:39;;;;;;;13.02;7.93;;;;;;;8.52;81.22;96539.38;6253063;22;20034;-92
2021/09/11 05:03:04;;;;;;;9.82;7.65;;;;;;;8.63;81.61;96559.50;6252716;22;20061;-91
2021/09/11 05:05:30;;;;;;;11.65;7.95;;;;;;;8.42;81.46;96527.00;6252800;22;20008;-93
2021/09/11 05:07:59;;;;;;;13.15;7.60;;;;;;;8.69;81.63;96557.00;6252903;22;20008;-91
2021/09/11 05:10:26;;;;;;;13.57;8.15;;;;;;;8.71;82.08;96557.28;6252760;22;20003;-93
2021/09/11 05:12:52;;;;;;;12.20;7.80;;;;;;;8.51;81.83;96529.75;6252697;22;20096;-91
2021/09/11 05:15:20;;;;;;;13.00;8.25;;;;;;;8.60;82.64;96533.28;6252729;22;20038;-91
2021/09/11 05:17:45;;;;;;;16.00;9.32;;;;;;;8.61;83.27;96529.38;6252860;22;19996;-92
2021/09/11 05:20:12;;;;;;;15.73;8.82;;;;;;;8.84;83.27;96566.13;6252886;22;20061;-93
2021/09/11 05:22:38;;;;;;;14.65;8.75;;;;;;;8.77;83.16;96552.06;6252662;22;20000;-92
2021/09/11 05:25:06;;;;;;;18.92;10.75;;;;;;;8.96;83.22;96561.84;6252576;22;20010;-93
2021/09/11 05:27:31;;;;;;;18.30;10.32;;;;;;;8.80;83.59;96519.44;6252620;22;20074;-93
2021/09/11 05:29:57;;;;;;;16.70;10.30;;;;;;;8.82;83.25;96533.28;6252661;22;20004;-93
2021/09/11 05:32:22;;;;;;;17.33;9.80;;;;;;;8.76;83.21;96529.66;6275210;22;20027;-92
2021/09/11 05:34:48;;;;;;;22.15;10.68;;;;;;;8.68;83.23;96503.25;6307180;22;20013;-93
2021/09/11 05:37:13;;;;;;;18.17;9.80;;;;;;;9.01;83.43;96541.56;6307363;22;20006;-93
2021/09/11 05:39:39;;;;;;;16.58;9.77;;;;;;;8.99;83.63;96543.94;6307320;22;20078;-92
2021/09/11 05:42:04;;;;;;;16.23;9.85;;;;;;;8.83;83.43;96525.94;6307069;22;20026;-92
2021/09/11 05:44:30;;;;;;;14.60;9.60;;;;;;;9.10;84.10;96558.59;6307196;22;20010;-94
2021/09/11 05:46:57;;;;;;;18.33;10.57;;;;;;;8.93;84.57;96535.63;6306935;22;20034;-92
2021/09/11 05:49:25;;;;;;;14.43;9.63;;;;;;;9.08;84.30;96550.16;6307185;22;20003;-91
2021/09/11 05:51:51;;;;;;;20.08;11.75;;;;;;;9.03;84.58;96528.31;6306945;22;20007;-93
2021/09/11 05:54:17;;;;;;;22.98;12.27;;;;;;;9.09;84.53;96526.53;6307215;22;20041;-94
2021/09/11 05:56:43;;;;;;;27.25;15.80;;;;;;;9.34;84.60;96545.34;6307023;22;20014;-92
2021/09/11 05:59:09;;;;;;;26.40;17.20;;;;;;;9.37;85.20;96544.44;6307078;22;19999;-92
2021/09/11 06:01:34;;;;;;;29.23;16.83;;;;;;;9.56;85.15;96560.81;6307165;22;20353;-93
2021/09/11 06:04:00;;;;;;;28.95;15.93;;;;;;;9.42;85.93;96535.72;6306983;22;20003;-95
2021/09/11 06:06:25;;;;;;;25.45;13.35;;;;;;;9.70;85.83;96563.72;6307151;22;19999;-92
2021/09/11 06:08:51;;;;;;;17.40;11.80;;;;;;;9.69;86.46;96548.66;6307134;22;20010;-94
2021/09/11 06:11:16;;;;;;;19.17;12.85;;;;;;;9.70;86.56;96533.16;6307125;22;20014;-93
2021/09/11 06:13:42;;;;;;;19.48;13.27;;;;;;;9.74;86.70;96543.84;6307095;22;20467;-92
2021/09/11 06:16:08;;;;;;;22.17;14.32;;;;;;;9.66;86.37;96535.25;6307157;22;20006;-91
2021/09/11 06:18:34;;;;;;;17.13;12.20;;;;;;;9.79;86.49;96546.72;6307007;22;20424;-94
2021/09/11 06:21:00;;;;;;;22.48;12.95;;;;;;;9.78;86.42;96541.75;6307273;22;20003;-93
2021/09/11 06:23:27;;;;;;;18.85;12.80;;;;;;;9.80;86.76;96539.34;6307210;22;20060;-91
2021/09/11 06:25:53;;;;;;;20.15;13.13;;;;;;;10.05;86.08;96566.25;6307058;22;20035;-91
2021/09/11 06:28:21;;;;;;;19.80;13.32;;;;;;;10.05;85.83;96557.34;6306383;22;20003;-92
2021/09/11 06:30:47;;;;;;;19.42;12.55;;;;;;;10.07;85.56;96557.66;6306931;22;20003;-92
2021/09/11 06:33:13;;;;;;;16.77;12.87;;;;;;;9.96;85.51;96523.56;6233996;22;1226681;-92
2021/09/11 06:35:39;;;;;;;17.58;12.80;;;;;;;9.95;85.62;96522.03;6307927;22;20016;-92
2021/09/11 06:38:04;;;;;;;18.13;12.70;;;;;;;10.13;85.52;96542.28;6308684;22;20005;-95
2021/09/11 06:40:30;;;;;;;18.75;13.10;;;;;;;10.26;85.91;96545.66;6308597;22;20003;-93
2021/09/11 06:42:55;;;;;;;18.33;13.50;;;;;;;10.28;85.77;96550.63;6308558;22;20081;-92
2021/09/11 06:45:21;;;;;;;20.77;14.57;;;;;;;10.26;85.16;96540.22;6308852;22;20078;-93
2021/09/11 06:47:47;;;;;;;19.10;14.80;;;;;;;10.37;85.35;96553.34;6308453;22;20000;-92
2021/09/11 06:50:34;;;;;;;20.30;14.43;;;;;;;10.54;85.84;96560.00;6308551;22;20083;-94
2021/09/11 06:52:59;;;;;;;19.08;14.07;;;;;;;10.52;85.39;96535.25;6308655;22;20367;-93
2021/09/11 06:55:25;;;;;;;18.52;12.75;;;;;;;10.57;84.77;96542.06;6308504;22;20014;-93
2021/09/11 06:57:51;;;;;;;17.50;12.40;;;;;;;10.57;84.77;96531.94;6308386;22;19999;-93
2021/09/11 07:00:17;;;;;;;16.85;11.20;;;;;;;10.76;84.97;96551.72;6308627;22;20031;-93
2021/09/11 07:02:43;;;;;;;16.92;11.95;;;;;;;10.76;84.85;96540.84;6308392;22;20014;-92
2021/09/11 07:05:09;;;;;;;13.18;11.15;;;;;;;10.74;84.88;96535.84;6308291;22;20007;-91
2021/09/11 07:07:35;;;;;;;15.90;10.32;;;;;;;10.95;84.19;96555.91;6308474;22;20091;-92
2021/09/11 07:10:00;;;;;;;19.73;10.50;;;;;;;10.87;84.35;96534.97;6309056;22;20030;-92
2021/09/11 07:12:26;;;;;;;14.50;10.18;;;;;;;11.05;84.16;96548.50;6308322;22;20007;-92
2021/09/11 07:14:51;;;;;;;14.60;9.93;;;;;;;11.04;83.87;96536.13;6308170;22;20051;-91
2021/09/11 07:17:17;;;;;;;11.95;9.57;;;;;;;11.04;84.10;96521.78;6308160;22;20002;-92
2021/09/11 07:19:42;;;;;;;15.38;9.27;;;;;;;11.29;83.22;96551.31;6307887;22;20062;-92
2021/09/11 07:22:08;;;;;;;11.02;9.57;;;;;;;11.22;83.64;96516.28;6308149;22;20370;-92
2021/09/11 07:24:34;;;;;;;12.63;9.40;;;;;;;11.24;83.05;96514.66;6307898;22;20439;-94
2021/09/11 07:27:00;;;;;;;12.57;9.27;;;;;;;11.45;82.98;96537.38;6307990;22;20442;-93
2021/09/11 07:29:25;;;;;;;13.27;9.50;;;;;;;11.48;82.83;96536.47;6308610;22;20010;-92
2021/09/11 07:31:51;;;;;;;12.23;8.93;;;;;;;11.61;82.81;96544.44;6307483;22;20019;-92
2021/09/11 07:34:17;;;;;;;14.40;9.10;;;;;;;11.63;82.67;96533.84;6307889;22;20011;-92
2021/09/11 07:36:42;;;;;;;13.77;8.65;;;;;;;11.75;82.38;96549.19;6307952;22;20018;-93
2021/09/11 07:39:08;;;;;;;18.05;9.63;;;;;;;11.65;82.33;96525.97;6307954;22;20003;-93
2021/09/11 07:41:34;;;;;;;13.52;8.80;;;;;;;11.80;81.66;96545.84;6307942;22;20007;-91
2021/09/11 07:44:00;;;;;;;15.65;8.65;;;;;;;11.95;80.89;96548.69;6308012;22;20008;-92
2021/09/11 07:46:26;;;;;;;12.88;8.30;;;;;;;11.86;80.65;96524.22;6307730;22;20428;-93
2021/09/11 07:48:51;;;;;;;16.50;8.48;;;;;;;11.96;80.70;96530.38;6307765;22;20056;-92
2021/09/11 07:51:17;;;;;;;9.80;7.25;;;;;;;12.10;80.16;96532.41;6307824;22;20003;-92
2021/09/11 07:53:42;;;;;;;10.93;6.95;;;;;;;12.20;79.54;96536.59;6308961;22;20034;-92
2021/09/11 07:56:08;;;;;;;10.23;7.60;;;;;;;12.21;79.56;96529.19;6307709;22;20003;-92
2021/09/11 07:58:34;;;;;;;11.35;6.78;;;;;;;12.41;79.46;96547.63;6307655;22;20420;-92
2021/09/11 08:01:00;;;;;;;9.38;6.43;;;;;;;12.36;77.47;96524.53;6307684;22;20006;-94
2021/09/11 08:03:27;;;;;;;8.75;6.90;;;;;;;12.41;77.58;96529.34;6307276;22;20007;-93
2021/09/11 08:05:54;;;;;;;8.15;6.57;;;;;;;12.61;77.40;96536.13;6307701;22;20373;-93
2021/09/11 08:08:20;;;;;;;7.55;5.72;;;;;;;12.54;77.08;96521.66;6307527;22;20267;-93
2021/09/11 08:10:45;;;;;;;7.65;5.60;;;;;;;12.57;76.55;96512.56;6307485;22;20006;-93
2021/09/11 08:13:15;;;;;;;7.47;6.13;;;;;;;12.76;75.86;96524.03;6307346;22;20083;-92
2021/09/11 08:15:42;;;;;;;6.60;5.90;;;;;;;12.72;75.85;96509.84;6307610;22;20003;-94
2021/09/11 08:18:07;;;;;;;8.13;6.22;;;;;;;12.82;76.22;96510.53;6307449;22;20074;-93
2021/09/11 08:20:35;;;;;;;11.05;6.32;;;;;;;12.87;75.92;96507.16;6307395;22;20003;-93
2021/09/11 08:23:02;;;;;;;9.25;5.95;;;;;;;13.03;75.70;96517.59;6309369;22;19999;-93
2021/09/11 08:25:28;;;;;;;10.98;5.82;;;;;;;12.99;75.85;96495.19;6307479;22;20080;-92
2021/09/11 08:27:53;;;;;;;7.05;5.68;;;;;;;13.17;76.06;96509.88;6307183;22;20488;-92
2021/09/11 08:30:19;;;;;;;8.20;5.78;;;;;;;13.18;75.51;96503.97;6307418;22;20094;-92
2021/09/11 08:32:44;;;;;;;10.15;5.82;;;;;;;13.24;73.89;96490.44;6307072;22;20032;-91
2021/09/11 08:35:12;;;;;;;7.47;6.30;;;;;;;13.25;73.25;96479.06;6307334;22;20003;-93
2021/09/11 08:37:39;;;;;;;9.73;6.00;;;;;;;13.35;73.86;96477.72;6307301;22;19995;-92
2021/09/11 08:40:05;;;;;;;10.10;5.90;;;;;;;13.44;74.14;96485.06;6307302;22;20014;-93
2021/09/11 08:42:31;;;;;;;9.13;5.80;;;;;;;13.47;72.56;96475.91;6307591;22;20003;-92
2021/09/11 08:44:57;;;;;;;7.22;5.80;;;;;;;13.59;72.70;96480.31;6307353;22;20332;-92
2021/09/11 08:47:22;;;;;;;9.10;5.57;;;;;;;13.58;72.43;96465.19;6307511;22;20007;-92
2021/09/11 08:49:48;;;;;;;8.70;5.40;;;;;;;13.72;71.75;96465.59;6307794;22;20471;-92
2021/09/11 08:52:14;;;;;;;7.80;4.97;;;;;;;13.82;72.40;96458.78;6307166;22;20086;-92
2021/09/11 08:54:40;;;;;;;7.60;5.30;;;;;;;14.02;72.12;96475.19;6307289;22;20023;-92
2021/09/11 08:57:26;;;;;;;10.52;6.07;;;;;;;14.16;73.04;96484.53;6307505;22;20007;-92
2021/09/11 08:59:53;;;;;;;9.73;7.45;;;;;;;14.14;71.84;96462.41;6307384;22;20003;-92
2021/09/11 09:02:21;;;;;;;12.10;7.95;;;;;;;14.32;70.17;96469.56;6307163;22;19995;-91
2021/09/11 09:04:53;;;;;;;11.45;7.63;;;;;;;14.42;70.66;96468.19;6307286;22;20069;-92
2021/09/11 09:07:39;;;;;;;9.05;6.18;;;;;;;14.49;69.82;96458.84;6307123;22;20003;-92
2021/09/11 09:10:10;;;;;;;9.23;6.40;;;;;;;14.58;70.09;96461.44;6307157;22;20007;-91
2021/09/11 09:12:43;;;;;;;7.15;5.40;;;;;;;14.50;70.75;96433.78;6307105;22;20011;-91
2021/09/11 09:15:11;;;;;;;8.55;5.57;;;;;;;14.74;69.12;96454.63;6307414;22;20014;-92
2021/09/11 09:17:43;;;;;;;10.27;5.60;;;;;;;14.73;69.33;96440.22;6307252;22;20000;-91
2021/09/11 09:20:17;;;;;;;7.72;5.40;;;;;;;14.92;69.33;96457.81;6307811;22;20446;-91
2021/09/11 09:22:45;;;;;;;7.88;5.00;;;;;;;14.93;68.37;96439.41;6307243;22;20010;-92
2021/09/11 09:25:25;;;;;;;9.18;5.28;;;;;;;14.99;68.08;96433.97;6307127;22;20003;-91
2021/09/11 09:27:57;;;;;;;9.10;5.55;;;;;;;15.15;65.36;96453.25;6307025;22;20008;-91
2021/09/11 09:30:38;;;;;;;6.13;4.95;;;;;;;15.13;66.51;96428.38;6307194;22;20013;-91
2021/09/11 09:33:05;;;;;;;9.95;4.80;;;;;;;15.35;65.28;96441.47;6308213;22;20015;-91
2021/09/11 09:35:31;;;;;;;5.82;4.68;;;;;;;15.31;65.98;96416.31;6308979;22;20010;-91
2021/09/11 09:38:09;;;;;;;8.48;4.95;;;;;;;15.50;65.17;96435.09;6308903;22;19999;-90
2021/09/11 09:40:39;;;;;;;8.32;4.90;;;;;;;15.56;64.84;96435.88;6308779;22;19999;-91
2021/09/11 09:43:07;;;;;;;7.88;4.18;;;;;;;15.35;64.70;96388.75;6309037;22;20064;-91
2021/09/11 09:45:34;;;;;;;6.65;4.20;;;;;;;15.66;65.25;96418.06;6308984;22;20003;-91
2021/09/11 09:48:05;;;;;;;8.48;4.30;;;;;;;15.54;64.92;96395.31;6308665;22;20045;-90
2021/09/11 09:50:36;;;;;;;5.25;4.30;;;;;;;15.85;66.16;96424.59;6310033;22;20003;-91
2021/09/11 09:53:03;;;;;;;4.95;4.10;;;;;;;15.76;65.43;96397.44;6310033;22;20049;-90
2021/09/11 09:55:29;;;;;;;6.38;3.53;;;;;;;15.83;64.91;96390.75;6308774;22;20003;-91
2021/09/11 09:57:55;;;;;;;8.40;4.07;;;;;;;15.96;64.61;96405.50;6308664;22;20003;-91
2021/09/11 10:00:22;;;;;;;5.30;3.90;;;;;;;16.15;62.48;96418.78;6308769;22;20056;-91
2021/09/11 10:02:48;;;;;;;5.55;4.45;;;;;;;16.09;61.72;96393.34;6308551;22;20003;-91
2021/09/11 10:05:15;;;;;;;7.10;4.00;;;;;;;16.19;62.59;96394.59;6308850;22;20007;-90
2021/09/11 10:07:55;;;;;;;6.00;3.60;;;;;;;16.36;63.08;96416.59;6308454;22;20003;-92
2021/09/11 10:10:30;;;;;;;5.72;3.80;;;;;;;16.40;61.82;96406.13;6308677;22;20003;-90
2021/09/11 10:13:10;;;;;;;4.90;3.88;;;;;;;16.60;62.01;96411.38;6308513;22;19999;-91
2021/09/11 10:15:48;;;;;;;7.45;4.10;;;;;;;16.61;62.32;96390.94;6310024;22;20014;-90
2021/09/11 10:18:32;;;;;;;6.50;4.18;;;;;;;16.81;63.31;96403.72;6308550;22;20003;-90
2021/09/11 10:21:14;;;;;;;5.22;3.53;;;;;;;16.89;64.65;96396.50;6308412;22;20420;-90
2021/09/11 10:24:00;;;;;;;6.13;4.03;;;;;;;17.10;62.17;96393.47;6308487;22;20064;-90
2021/09/11 10:26:45;;;;;;;5.82;3.92;;;;;;;17.32;64.44;96398.22;6293879;22;20014;-90
2021/09/11 10:29:35;;;;;;;4.88;3.70;;;;;;;17.40;62.11;96391.69;6308377;22;20045;-90
2021/09/11 10:32:10;;;;;;;10.10;3.92;;;;;;;17.52;63.39;96395.16;6307979;22;20080;-89
2021/09/11 10:34:49;;;;;;;6.68;3.40;;;;;;;17.64;60.10;96385.66;6308431;22;20062;-90
2021/09/11 10:37:39;;;;;;;5.53;3.47;;;;;;;17.79;59.14;96388.16;6308404;22;20003;-90
2021/09/11 10:40:25;;;;;;;5.50;3.40;;;;;;;17.95;59.03;96384.59;6308328;22;20090;-90
2021/09/11 10:43:13;;;;;;;5.63;3.45;;;;;;;18.11;62.24;96383.03;6307770;22;20333;-90
2021/09/11 10:45:54;;;;;;;6.75;4.10;;;;;;;18.29;58.75;96385.16;6308144;22;20419;-90
2021/09/11 10:48:44;;;;;;;5.82;3.33;;;;;;;18.35;57.80;96360.38;6308110;22;20003;-91
2021/09/11 10:51:20;;;;;;;3.95;2.75;;;;;;;18.58;55.00;96375.47;6308513;22;20041;-89
2021/09/11 10:53:55;;;;;;;5.47;3.22;;;;;;;18.75;54.42;96366.38;6308160;22;20007;-90
2021/09/11 10:56:29;;;;;;;6.40;3.42;;;;;;;18.93;56.37;96370.50;6308109;22;20010;-90
2021/09/11 11:02:21;;;;;;;5.72;3.28;;;;;;;19.18;50.73;96363.03;6309317;22;20007;-90
2021/09/11 11:04:47;;;;;;;4.25;2.67;;;;;;;19.35;51.64;96363.63;6308026;22;20075;-90
2021/09/11 11:07:14;;;;;;;4.57;2.72;;;;;;;19.44;52.26;96357.78;6307965;22;20429;-90
2021/09/11 11:09:56;;;;;;;6.85;3.00;;;;;;;19.55;52.07;96343.88;6307705;22;20052;-90
2021/09/11 11:12:34;;;;;;;5.78;2.90;;;;;;;19.58;51.80;96337.31;6309242;22;20011;-89
2021/09/11 11:15:08;;;;;;;3.88;2.53;;;;;;;19.71;51.59;96335.94;6307906;22;20045;-90
2021/09/11 11:17:41;;;;;;;4.70;2.85;;;;;;;19.80;50.06;96332.84;6307896;22;20003;-90
2021/09/11 11:20:44;;;;;;;3.85;2.50;;;;;;;19.99;49.03;96341.13;6307835;22;20007;-91
2021/09/11 11:23:10;;;;;;;5.78;2.78;;;;;;;19.97;50.34;96329.88;6309474;22;20018;-90
2021/09/11 11:25:39;;;;;;;6.30;2.92;;;;;;;20.07;48.90;96322.72;6307700;22;20008;-89
2021/09/11 11:28:06;;;;;;;6.47;2.60;;;;;;;20.19;49.35;96326.84;6307688;22;20132;-90
2021/09/11 11:30:31;;;;;;;6.05;2.60;;;;;;;20.37;44.96;96330.81;6307387;22;20086;-89
2021/09/11 11:33:01;;;;;;;7.80;2.65;;;;;;;20.29;43.64;96319.63;6307328;22;20445;-91
2021/09/11 11:35:28;;;;;;;4.43;2.33;;;;;;;20.44;48.36;96321.19;6307808;22;20010;-90
2021/09/11 11:37:53;;;;;;;3.80;2.15;;;;;;;20.66;45.02;96332.66;6307664;22;20018;-91